F/V Face A La Mer — FGA3236 — position and weather

sailwx.info

Track history (hours):
 
Tides and Currents Weather Stations Pressure Air Temp Water Temp Dewpoint Dewpoint Depression Visibility Wind Speed Wind Dir Waves Ship Positions

F/V Face A La Mer

Last reported at 2018-Feb-20 21:27 UTC. Time now 2018-Feb-23 16:37 UTC.
Position N 48°06' W 004°20'.

Length 14 m.

Type: Fishing. MMSI: 227315190.

Date/timePositionNaut miles runAvg speedWind from/ knotsBaromVisibWave heightAir tempDewpointWater temp
2018-Feb-20 21:27N 48°06' W 004°20'0 0.2
2018-Feb-20 20:53N 48°06' W 004°19'0 1.0
2018-Feb-20 20:30N 48°06' W 004°20'3 5.1
2018-Feb-20 19:55N 48°08' W 004°23'1 1.1
2018-Feb-20 19:24N 48°08' W 004°24'0 0.2
2018-Feb-20 18:58N 48°08' W 004°24'1 1.2
2018-Feb-20 18:30N 48°08' W 004°24'1 1.0
2018-Feb-20 18:00N 48°08' W 004°23'0 0.1
2018-Feb-20 17:30N 48°08' W 004°23'1 1.3
2018-Feb-20 16:59N 48°09' W 004°23'5 8.8
2018-Feb-20 16:28N 48°12' W 004°28'1 1.9
2018-Feb-20 16:00N 48°11' W 004°28'5 8.2
2018-Feb-20 15:26N 48°09' W 004°21'3 7.5
2018-Feb-20 15:00N 48°06' W 004°19'0 0.0
2018-Feb-20 14:23N 48°06' W 004°19'0 0.0
2018-Feb-19 23:25N 48°06' W 004°19'0 0.1
2018-Feb-19 22:57N 48°06' W 004°19'0 0.0
2018-Feb-19 22:27N 48°06' W 004°19'0 0.0
2018-Feb-19 21:49N 48°06' W 004°19'2 5.3
2018-Feb-19 21:28N 48°07' W 004°21'3 5.7
2018-Feb-19 20:58N 48°09' W 004°25'4 7.7
2018-Feb-19 20:29N 48°11' W 004°30'4 7.1
2018-Feb-19 19:53N 48°10' W 004°36'3 8.8
2018-Feb-19 19:30N 48°11' W 004°40'2 4.4
2018-Feb-19 18:59N 48°13' W 004°43'0 0.7
2018-Feb-19 18:28N 48°13' W 004°43'0 0.4
2018-Feb-19 18:00N 48°13' W 004°43'3 6.0
2018-Feb-19 17:30N 48°11' W 004°40'6 8.6
2018-Feb-19 16:49N 48°09' W 004°31'3 8.8
2018-Feb-19 16:29N 48°08' W 004°27'3 4.4
2018-Feb-19 15:53N 48°07' W 004°23'1 1.4
2018-Feb-19 15:27N 48°08' W 004°23'3 5.1
2018-Feb-19 14:54N 48°06' W 004°19'0 0.0
2018-Feb-18 23:34N 48°06' W 004°19'0 0.4
2018-Feb-18 23:21N 48°06' W 004°19'0 0.4
2018-Feb-18 22:58N 48°06' W 004°19'2 5.4
2018-Feb-18 22:30N 48°08' W 004°21'2 3.4
2018-Feb-18 21:58N 48°08' W 004°24'1 1.4
2018-Feb-18 21:24N 48°07' W 004°24'1 1.4
2018-Feb-18 20:58N 48°08' W 004°24'1 2.2
2018-Feb-18 20:26N 48°08' W 004°22'4 9.0
2018-Feb-18 20:00N 48°11' W 004°27'2 3.1
2018-Feb-18 19:30N 48°10' W 004°28'3 6.2
2018-Feb-18 18:59N 48°07' W 004°26'0 0.5
2018-Feb-18 18:24N 48°07' W 004°26'3 7.5
2018-Feb-18 17:59N 48°08' W 004°21'1 1.5
2018-Feb-18 17:29N 48°09' W 004°21'1 2.2
2018-Feb-18 16:58N 48°08' W 004°20'1 1.6
2018-Feb-18 16:29N 48°08' W 004°21'1 2.5
2018-Feb-18 15:58N 48°09' W 004°23'1 2.1
2018-Feb-18 15:30N 48°08' W 004°21'3 5.1
2018-Feb-18 14:58N 48°06' W 004°20'0 0.0
2018-Feb-18 14:27N 48°06' W 004°20'  
2018-Feb-15 22:26N 48°06' W 004°20'0 0.2
2018-Feb-15 21:42N 48°06' W 004°19'0 0.0
2018-Feb-15 21:18N 48°06' W 004°19'0 0.0
2018-Feb-15 21:00N 48°06' W 004°19'3 5.8
2018-Feb-15 20:29N 48°08' W 004°23'1 1.9
2018-Feb-15 19:58N 48°08' W 004°22'1 0.9
2018-Feb-15 19:24N 48°08' W 004°22'0 0.1
2018-Feb-15 18:59N 48°08' W 004°22'2 3.1
2018-Feb-15 18:25N 48°07' W 004°24'3 5.7
2018-Feb-15 17:58N 48°08' W 004°21'1 2.2
2018-Feb-15 17:29N 48°08' W 004°22'0 0.2
2018-Feb-15 16:59N 48°08' W 004°22'0 0.3
2018-Feb-15 16:30N 48°07' W 004°22'2 3.0
2018-Feb-15 15:59N 48°07' W 004°24'2 3.1
2018-Feb-15 15:18N 48°08' W 004°21'2 5.9
2018-Feb-15 14:57N 48°06' W 004°20'0 0.0
2018-Feb-14 21:48N 48°06' W 004°20'0 0.0
2018-Feb-14 20:53N 48°06' W 004°20'3 6.7
2018-Feb-14 20:26N 48°09' W 004°22'0 0.1
2018-Feb-14 19:58N 48°09' W 004°22'1 2.7
2018-Feb-14 19:31N 48°10' W 004°21'4 8.2
2018-Feb-14 18:58N 48°11' W 004°27'3 5.5
2018-Feb-14 18:29N 48°10' W 004°24'2 3.8
2018-Feb-14 17:56N 48°08' W 004°21'1 1.6
2018-Feb-14 17:18N 48°08' W 004°20'0 0.9
2018-Feb-14 16:58N 48°08' W 004°21'0 0.3
2018-Feb-14 16:21N 48°08' W 004°21'1 1.5
2018-Feb-14 15:38N 48°07' W 004°22'1 2.9
2018-Feb-14 15:25N 48°08' W 004°22'3 5.8
2018-Feb-14 14:59N 48°06' W 004°20'0 0.0
2018-Feb-13 15:19N 48°06' W 004°20'0 0.0
2018-Feb-13 14:53N 48°06' W 004°20'0 0.0
2018-Feb-12 20:33N 48°06' W 004°19'1 1.3
2018-Feb-12 19:58N 48°07' W 004°20'2 4.5
2018-Feb-12 19:26N 48°08' W 004°23'0 0.2
2018-Feb-12 18:53N 48°07' W 004°23'3 7.0
2018-Feb-12 18:26N 48°07' W 004°28'4 8.2
2018-Feb-12 17:58N 48°08' W 004°22'1 2.0
2018-Feb-12 17:22N 48°08' W 004°24'1 2.5
2018-Feb-12 16:58N 48°08' W 004°23'1 2.8
2018-Feb-12 16:29N 48°08' W 004°21'1 1.3
2018-Feb-12 16:00N 48°08' W 004°21'0 0.7
2018-Feb-12 15:24N 48°08' W 004°22'2 2.7
2018-Feb-12 14:34N 48°06' W 004°19'0 0.0
2018-Feb-11 20:18N 48°06' W 004°19'0 1.3
2018-Feb-11 19:58N 48°06' W 004°19'3 3.8
2018-Feb-11 19:18N 48°08' W 004°23'0 0.2
2018-Feb-11 18:58N 48°08' W 004°22'1 1.6
2018-Feb-11 18:29N 48°07' W 004°24'2 4.4
2018-Feb-11 17:58N 48°09' W 004°21'0 0.5
2018-Feb-11 17:27N 48°09' W 004°21'0 0.4
2018-Feb-11 16:58N 48°09' W 004°21'1 1.0
2018-Feb-11 16:14N 48°09' W 004°20'2 6.1
2018-Feb-11 15:59N 48°10' W 004°22'2 4.2
2018-Feb-11 15:24N 48°08' W 004°20'2 2.8
2018-Feb-11 14:43N 48°06' W 004°19'  
Track history (hours):
 
Tides and Currents Weather Stations Pressure Air Temp Water Temp Dewpoint Dewpoint Depression Visibility Wind Speed Wind Dir Waves Ship Positions

F/V Face A La Mer

Last reported at 2018-Feb-20 21:27 UTC. Time now 2018-Feb-23 16:37 UTC.
Position N 48°06' W 004°20'.

Length 14 m.

Type: Fishing. MMSI: 227315190.

Date/timePositionNaut miles runAvg speedWind from/ knotsBaromVisibWave heightAir tempDewpointWater temp
2018-Feb-20 21:27N 48°06' W 004°20'0 0.2
2018-Feb-20 20:53N 48°06' W 004°19'0 1.0
2018-Feb-20 20:30N 48°06' W 004°20'3 5.1
2018-Feb-20 19:55N 48°08' W 004°23'1 1.1
2018-Feb-20 19:24N 48°08' W 004°24'0 0.2
2018-Feb-20 18:58N 48°08' W 004°24'1 1.2
2018-Feb-20 18:30N 48°08' W 004°24'1 1.0
2018-Feb-20 18:00N 48°08' W 004°23'0 0.1
2018-Feb-20 17:30N 48°08' W 004°23'1 1.3
2018-Feb-20 16:59N 48°09' W 004°23'5 8.8
2018-Feb-20 16:28N 48°12' W 004°28'1 1.9
2018-Feb-20 16:00N 48°11' W 004°28'5 8.2
2018-Feb-20 15:26N 48°09' W 004°21'3 7.5
2018-Feb-20 15:00N 48°06' W 004°19'0 0.0
2018-Feb-20 14:23N 48°06' W 004°19'0 0.0
2018-Feb-19 23:25N 48°06' W 004°19'0 0.1
2018-Feb-19 22:57N 48°06' W 004°19'0 0.0
2018-Feb-19 22:27N 48°06' W 004°19'0 0.0
2018-Feb-19 21:49N 48°06' W 004°19'2 5.3
2018-Feb-19 21:28N 48°07' W 004°21'3 5.7
2018-Feb-19 20:58N 48°09' W 004°25'4 7.7
2018-Feb-19 20:29N 48°11' W 004°30'4 7.1
2018-Feb-19 19:53N 48°10' W 004°36'3 8.8
2018-Feb-19 19:30N 48°11' W 004°40'2 4.4
2018-Feb-19 18:59N 48°13' W 004°43'0 0.7
2018-Feb-19 18:28N 48°13' W 004°43'0 0.4
2018-Feb-19 18:00N 48°13' W 004°43'3 6.0
2018-Feb-19 17:30N 48°11' W 004°40'6 8.6
2018-Feb-19 16:49N 48°09' W 004°31'3 8.8
2018-Feb-19 16:29N 48°08' W 004°27'3 4.4
2018-Feb-19 15:53N 48°07' W 004°23'1 1.4
2018-Feb-19 15:27N 48°08' W 004°23'3 5.1
2018-Feb-19 14:54N 48°06' W 004°19'0 0.0
2018-Feb-18 23:34N 48°06' W 004°19'0 0.4
2018-Feb-18 23:21N 48°06' W 004°19'0 0.4
2018-Feb-18 22:58N 48°06' W 004°19'2 5.4
2018-Feb-18 22:30N 48°08' W 004°21'2 3.4
2018-Feb-18 21:58N 48°08' W 004°24'1 1.4
2018-Feb-18 21:24N 48°07' W 004°24'1 1.4
2018-Feb-18 20:58N 48°08' W 004°24'1 2.2
2018-Feb-18 20:26N 48°08' W 004°22'4 9.0
2018-Feb-18 20:00N 48°11' W 004°27'2 3.1
2018-Feb-18 19:30N 48°10' W 004°28'3 6.2
2018-Feb-18 18:59N 48°07' W 004°26'0 0.5
2018-Feb-18 18:24N 48°07' W 004°26'3 7.5
2018-Feb-18 17:59N 48°08' W 004°21'1 1.5
2018-Feb-18 17:29N 48°09' W 004°21'1 2.2
2018-Feb-18 16:58N 48°08' W 004°20'1 1.6
2018-Feb-18 16:29N 48°08' W 004°21'1 2.5
2018-Feb-18 15:58N 48°09' W 004°23'1 2.1
2018-Feb-18 15:30N 48°08' W 004°21'3 5.1
2018-Feb-18 14:58N 48°06' W 004°20'0 0.0
2018-Feb-18 14:27N 48°06' W 004°20'  
2018-Feb-15 22:26N 48°06' W 004°20'0 0.2
2018-Feb-15 21:42N 48°06' W 004°19'0 0.0
2018-Feb-15 21:18N 48°06' W 004°19'0 0.0
2018-Feb-15 21:00N 48°06' W 004°19'3 5.8
2018-Feb-15 20:29N 48°08' W 004°23'1 1.9
2018-Feb-15 19:58N 48°08' W 004°22'1 0.9
2018-Feb-15 19:24N 48°08' W 004°22'0 0.1
2018-Feb-15 18:59N 48°08' W 004°22'2 3.1
2018-Feb-15 18:25N 48°07' W 004°24'3 5.7
2018-Feb-15 17:58N 48°08' W 004°21'1 2.2
2018-Feb-15 17:29N 48°08' W 004°22'0 0.2
2018-Feb-15 16:59N 48°08' W 004°22'0 0.3
2018-Feb-15 16:30N 48°07' W 004°22'2 3.0
2018-Feb-15 15:59N 48°07' W 004°24'2 3.1
2018-Feb-15 15:18N 48°08' W 004°21'2 5.9
2018-Feb-15 14:57N 48°06' W 004°20'0 0.0
2018-Feb-14 21:48N 48°06' W 004°20'0 0.0
2018-Feb-14 20:53N 48°06' W 004°20'3 6.7
2018-Feb-14 20:26N 48°09' W 004°22'0 0.1
2018-Feb-14 19:58N 48°09' W 004°22'1 2.7
2018-Feb-14 19:31N 48°10' W 004°21'4 8.2
2018-Feb-14 18:58N 48°11' W 004°27'3 5.5
2018-Feb-14 18:29N 48°10' W 004°24'2 3.8
2018-Feb-14 17:56N 48°08' W 004°21'1 1.6
2018-Feb-14 17:18N 48°08' W 004°20'0 0.9
2018-Feb-14 16:58N 48°08' W 004°21'0 0.3
2018-Feb-14 16:21N 48°08' W 004°21'1 1.5
2018-Feb-14 15:38N 48°07' W 004°22'1 2.9
2018-Feb-14 15:25N 48°08' W 004°22'3 5.8
2018-Feb-14 14:59N 48°06' W 004°20'0 0.0
2018-Feb-13 15:19N 48°06' W 004°20'0 0.0
2018-Feb-13 14:53N 48°06' W 004°20'0 0.0
2018-Feb-12 20:33N 48°06' W 004°19'1 1.3
2018-Feb-12 19:58N 48°07' W 004°20'2 4.5
2018-Feb-12 19:26N 48°08' W 004°23'0 0.2
2018-Feb-12 18:53N 48°07' W 004°23'3 7.0
2018-Feb-12 18:26N 48°07' W 004°28'4 8.2
2018-Feb-12 17:58N 48°08' W 004°22'1 2.0
2018-Feb-12 17:22N 48°08' W 004°24'1 2.5
2018-Feb-12 16:58N 48°08' W 004°23'1 2.8
2018-Feb-12 16:29N 48°08' W 004°21'1 1.3
2018-Feb-12 16:00N 48°08' W 004°21'0 0.7
2018-Feb-12 15:24N 48°08' W 004°22'2 2.7
2018-Feb-12 14:34N 48°06' W 004°19'0 0.0
2018-Feb-11 20:18N 48°06' W 004°19'0 1.3
2018-Feb-11 19:58N 48°06' W 004°19'3 3.8
2018-Feb-11 19:18N 48°08' W 004°23'0 0.2
2018-Feb-11 18:58N 48°08' W 004°22'1 1.6
2018-Feb-11 18:29N 48°07' W 004°24'2 4.4
2018-Feb-11 17:58N 48°09' W 004°21'0 0.5
2018-Feb-11 17:27N 48°09' W 004°21'0 0.4
2018-Feb-11 16:58N 48°09' W 004°21'1 1.0
2018-Feb-11 16:14N 48°09' W 004°20'2 6.1
2018-Feb-11 15:59N 48°10' W 004°22'2 4.2
2018-Feb-11 15:24N 48°08' W 004°20'2 2.8
2018-Feb-11 14:43N 48°06' W 004°19'  

Dump ship's entire track history